sensor_id;sensor_type;location;lat;lon;timestamp;temperature;humidity
10300;DHT22;5195;48.562;9.192;2023-02-20T00:00:40;10.70;53.00
10300;DHT22;5195;48.562;9.192;2023-02-20T00:03:07;10.80;53.00
10300;DHT22;5195;48.562;9.192;2023-02-20T00:05:32;10.70;52.70
10300;DHT22;5195;48.562;9.192;2023-02-20T00:07:58;10.50;53.00
10300;DHT22;5195;48.562;9.192;2023-02-20T00:10:23;10.70;53.20
10300;DHT22;5195;48.562;9.192;2023-02-20T00:12:49;10.90;52.60
10300;DHT22;5195;48.562;9.192;2023-02-20T00:15:15;10.90;52.50
10300;DHT22;5195;48.562;9.192;2023-02-20T00:17:42;10.50;53.20
10300;DHT22;5195;48.562;9.192;2023-02-20T00:20:07;10.50;53.20
10300;DHT22;5195;48.562;9.192;2023-02-20T00:22:32;10.30;53.40
10300;DHT22;5195;48.562;9.192;2023-02-20T00:24:58;10.50;53.30
10300;DHT22;5195;48.562;9.192;2023-02-20T00:27:23;10.90;52.80
10300;DHT22;5195;48.562;9.192;2023-02-20T00:29:49;10.90;52.50
10300;DHT22;5195;48.562;9.192;2023-02-20T00:32:15;10.90;52.30
10300;DHT22;5195;48.562;9.192;2023-02-20T00:34:41;10.90;52.30
10300;DHT22;5195;48.562;9.192;2023-02-20T00:37:07;11.00;52.20
10300;DHT22;5195;48.562;9.192;2023-02-20T00:39:33;11.20;51.80
10300;DHT22;5195;48.562;9.192;2023-02-20T00:41:58;11.10;51.70
10300;DHT22;5195;48.562;9.192;2023-02-20T00:44:24;11.10;51.90
10300;DHT22;5195;48.562;9.192;2023-02-20T00:46:50;11.20;51.70
10300;DHT22;5195;48.562;9.192;2023-02-20T00:49:16;11.10;51.60
10300;DHT22;5195;48.562;9.192;2023-02-20T00:51:41;10.90;52.20
10300;DHT22;5195;48.562;9.192;2023-02-20T00:54:07;10.90;52.50
10300;DHT22;5195;48.562;9.192;2023-02-20T00:56:32;10.80;52.50
10300;DHT22;5195;48.562;9.192;2023-02-20T00:58:58;10.90;52.60
10300;DHT22;5195;48.562;9.192;2023-02-20T01:01:24;11.10;52.20
10300;DHT22;5195;48.562;9.192;2023-02-20T01:03:49;11.30;51.80
10300;DHT22;5195;48.562;9.192;2023-02-20T01:06:17;11.30;51.40
10300;DHT22;5195;48.562;9.192;2023-02-20T01:08:43;11.30;52.30
10300;DHT22;5195;48.562;9.192;2023-02-20T01:11:09;11.30;51.70
10300;DHT22;5195;48.562;9.192;2023-02-20T01:13:34;11.10;51.70
10300;DHT22;5195;48.562;9.192;2023-02-20T01:16:00;10.90;52.20
10300;DHT22;5195;48.562;9.192;2023-02-20T01:18:26;11.10;51.90
10300;DHT22;5195;48.562;9.192;2023-02-20T01:20:51;11.10;51.90
10300;DHT22;5195;48.562;9.192;2023-02-20T01:23:17;11.00;51.80
10300;DHT22;5195;48.562;9.192;2023-02-20T01:25:43;10.80;52.20
10300;DHT22;5195;48.562;9.192;2023-02-20T01:28:08;10.60;53.20
10300;DHT22;5195;48.562;9.192;2023-02-20T01:30:34;10.70;52.80
10300;DHT22;5195;48.562;9.192;2023-02-20T01:32:59;11.00;52.40
10300;DHT22;5195;48.562;9.192;2023-02-20T01:35:25;10.90;52.20
10300;DHT22;5195;48.562;9.192;2023-02-20T01:37:50;11.00;52.20
10300;DHT22;5195;48.562;9.192;2023-02-20T01:40:20;11.40;51.40
10300;DHT22;5195;48.562;9.192;2023-02-20T01:42:49;11.40;51.40
10300;DHT22;5195;48.562;9.192;2023-02-20T01:47:49;11.40;51.20
10300;DHT22;5195;48.562;9.192;2023-02-20T01:50:14;11.00;51.60
10300;DHT22;5195;48.562;9.192;2023-02-20T01:52:39;11.00;51.90
10300;DHT22;5195;48.562;9.192;2023-02-20T01:55:26;10.90;51.90
10300;DHT22;5195;48.562;9.192;2023-02-20T01:57:51;11.00;52.00
10300;DHT22;5195;48.562;9.192;2023-02-20T02:00:16;10.80;51.90
10300;DHT22;5195;48.562;9.192;2023-02-20T02:02:43;10.90;52.20
10300;DHT22;5195;48.562;9.192;2023-02-20T02:05:08;10.90;51.90
10300;DHT22;5195;48.562;9.192;2023-02-20T02:07:33;10.90;52.20
10300;DHT22;5195;48.562;9.192;2023-02-20T02:10:01;11.10;51.60
10300;DHT22;5195;48.562;9.192;2023-02-20T02:12:25;11.20;51.20
10300;DHT22;5195;48.562;9.192;2023-02-20T02:14:51;11.20;51.20
10300;DHT22;5195;48.562;9.192;2023-02-20T02:17:44;10.90;51.60
10300;DHT22;5195;48.562;9.192;2023-02-20T02:36:32;10.70;52.10
10300;DHT22;5195;48.562;9.192;2023-02-20T02:39:09;10.50;52.10
10300;DHT22;5195;48.562;9.192;2023-02-20T02:44:23;9.80;53.80
10300;DHT22;5195;48.562;9.192;2023-02-20T02:47:05;9.70;54.20
10300;DHT22;5195;48.562;9.192;2023-02-20T02:49:47;9.50;54.50
10300;DHT22;5195;48.562;9.192;2023-02-20T02:52:10;9.30;54.60
10300;DHT22;5195;48.562;9.192;2023-02-20T02:54:36;9.60;55.30
10300;DHT22;5195;48.562;9.192;2023-02-20T02:57:17;9.60;54.80
10300;DHT22;5195;48.562;9.192;2023-02-20T02:59:40;9.50;55.00
10300;DHT22;5195;48.562;9.192;2023-02-20T03:02:08;9.20;55.60
10300;DHT22;5195;48.562;9.192;2023-02-20T03:04:32;9.20;55.40
10300;DHT22;5195;48.562;9.192;2023-02-20T03:07:02;9.50;55.60
10300;DHT22;5195;48.562;9.192;2023-02-20T03:09:31;9.90;55.20
10300;DHT22;5195;48.562;9.192;2023-02-20T03:11:55;10.30;53.40
10300;DHT22;5195;48.562;9.192;2023-02-20T03:14:22;10.60;52.70
10300;DHT22;5195;48.562;9.192;2023-02-20T03:17:15;10.50;52.50
10300;DHT22;5195;48.562;9.192;2023-02-20T03:19:45;10.20;52.90
10300;DHT22;5195;48.562;9.192;2023-02-20T03:22:23;10.30;53.00
10300;DHT22;5195;48.562;9.192;2023-02-20T03:24:48;10.50;52.50
10300;DHT22;5195;48.562;9.192;2023-02-20T03:27:27;10.80;51.90
10300;DHT22;5195;48.562;9.192;2023-02-20T03:29:51;10.60;51.80
10300;DHT22;5195;48.562;9.192;2023-02-20T03:32:16;10.60;52.00
10300;DHT22;5195;48.562;9.192;2023-02-20T03:35:01;10.50;52.10
10300;DHT22;5195;48.562;9.192;2023-02-20T03:37:47;10.50;52.20
10300;DHT22;5195;48.562;9.192;2023-02-20T03:40:32;10.70;51.40
10300;DHT22;5195;48.562;9.192;2023-02-20T03:43:18;10.90;51.20
10300;DHT22;5195;48.562;9.192;2023-02-20T03:45:46;11.10;50.60
10300;DHT22;5195;48.562;9.192;2023-02-20T03:48:20;10.80;50.70
10300;DHT22;5195;48.562;9.192;2023-02-20T03:50:44;10.80;51.00
10300;DHT22;5195;48.562;9.192;2023-02-20T03:53:29;10.50;51.00
10300;DHT22;5195;48.562;9.192;2023-02-20T03:55:55;10.10;51.50
10300;DHT22;5195;48.562;9.192;2023-02-20T03:58:22;10.00;51.80
10300;DHT22;5195;48.562;9.192;2023-02-20T04:00:47;10.00;51.50
10300;DHT22;5195;48.562;9.192;2023-02-20T04:03:14;9.70;52.80
10300;DHT22;5195;48.562;9.192;2023-02-20T04:05:39;9.50;53.30
10300;DHT22;5195;48.562;9.192;2023-02-20T04:10:35;9.40;53.90
10300;DHT22;5195;48.562;9.192;2023-02-20T04:12:58;9.70;53.30
10300;DHT22;5195;48.562;9.192;2023-02-20T04:15:24;10.10;52.10
10300;DHT22;5195;48.562;9.192;2023-02-20T04:17:51;10.10;51.40
10300;DHT22;5195;48.562;9.192;2023-02-20T04:20:16;10.20;50.90
10300;DHT22;5195;48.562;9.192;2023-02-20T04:22:42;10.00;51.00
10300;DHT22;5195;48.562;9.192;2023-02-20T04:25:24;9.90;52.10
10300;DHT22;5195;48.562;9.192;2023-02-20T04:27:45;10.00;51.10
10300;DHT22;5195;48.562;9.192;2023-02-20T04:30:11;9.70;52.00
10300;DHT22;5195;48.562;9.192;2023-02-20T04:32:36;9.40;52.60
10300;DHT22;5195;48.562;9.192;2023-02-20T04:35:02;9.40;53.00
10300;DHT22;5195;48.562;9.192;2023-02-20T04:37:27;9.60;52.80
10300;DHT22;5195;48.562;9.192;2023-02-20T04:39:53;9.40;52.60
10300;DHT22;5195;48.562;9.192;2023-02-20T04:42:19;9.40;53.00
10300;DHT22;5195;48.562;9.192;2023-02-20T04:44:44;9.60;52.50
10300;DHT22;5195;48.562;9.192;2023-02-20T04:47:11;9.40;52.50
10300;DHT22;5195;48.562;9.192;2023-02-20T04:49:36;8.80;53.50
10300;DHT22;5195;48.562;9.192;2023-02-20T04:52:02;8.70;53.30
10300;DHT22;5195;48.562;9.192;2023-02-20T04:54:27;8.80;53.50
10300;DHT22;5195;48.562;9.192;2023-02-20T04:56:53;9.10;52.80
10300;DHT22;5195;48.562;9.192;2023-02-20T04:59:19;8.70;53.10
10300;DHT22;5195;48.562;9.192;2023-02-20T05:01:45;8.70;53.20
10300;DHT22;5195;48.562;9.192;2023-02-20T05:04:11;8.30;54.00
10300;DHT22;5195;48.562;9.192;2023-02-20T05:06:41;8.20;53.90
10300;DHT22;5195;48.562;9.192;2023-02-20T05:09:06;7.90;54.50
10300;DHT22;5195;48.562;9.192;2023-02-20T05:11:32;7.90;54.50
10300;DHT22;5195;48.562;9.192;2023-02-20T05:13:57;7.80;54.80
10300;DHT22;5195;48.562;9.192;2023-02-20T05:16:23;8.10;55.30
10300;DHT22;5195;48.562;9.192;2023-02-20T05:18:48;8.10;54.90
10300;DHT22;5195;48.562;9.192;2023-02-20T05:21:14;8.00;55.00
10300;DHT22;5195;48.562;9.192;2023-02-20T05:24:00;8.20;55.40
10300;DHT22;5195;48.562;9.192;2023-02-20T05:26:26;8.60;54.60
10300;DHT22;5195;48.562;9.192;2023-02-20T05:28:53;8.70;54.30
10300;DHT22;5195;48.562;9.192;2023-02-20T05:31:21;8.60;54.20
10300;DHT22;5195;48.562;9.192;2023-02-20T05:33:47;8.90;53.70
10300;DHT22;5195;48.562;9.192;2023-02-20T05:36:12;8.80;53.60
10300;DHT22;5195;48.562;9.192;2023-02-20T05:38:38;8.80;53.60
10300;DHT22;5195;48.562;9.192;2023-02-20T05:41:04;8.70;53.40
10300;DHT22;5195;48.562;9.192;2023-02-20T05:43:30;8.80;53.70
10300;DHT22;5195;48.562;9.192;2023-02-20T05:45:55;9.10;53.30
10300;DHT22;5195;48.562;9.192;2023-02-20T05:48:21;8.90;53.20
10300;DHT22;5195;48.562;9.192;2023-02-20T05:50:48;8.70;53.70
10300;DHT22;5195;48.562;9.192;2023-02-20T05:53:15;8.40;54.20
10300;DHT22;5195;48.562;9.192;2023-02-20T05:55:40;8.20;54.80
10300;DHT22;5195;48.562;9.192;2023-02-20T05:58:06;8.00;55.10
10300;DHT22;5195;48.562;9.192;2023-02-20T06:00:32;7.80;55.40
10300;DHT22;5195;48.562;9.192;2023-02-20T06:02:57;7.80;55.70
10300;DHT22;5195;48.562;9.192;2023-02-20T06:05:23;8.00;55.90
10300;DHT22;5195;48.562;9.192;2023-02-20T06:07:48;8.40;54.80
10300;DHT22;5195;48.562;9.192;2023-02-20T06:10:14;8.40;54.30
10300;DHT22;5195;48.562;9.192;2023-02-20T06:12:40;8.50;54.20
10300;DHT22;5195;48.562;9.192;2023-02-20T06:15:06;8.80;53.80
10300;DHT22;5195;48.562;9.192;2023-02-20T06:17:32;9.00;53.10
10300;DHT22;5195;48.562;9.192;2023-02-20T06:19:58;9.00;52.60
10300;DHT22;5195;48.562;9.192;2023-02-20T06:22:24;9.00;52.70
10300;DHT22;5195;48.562;9.192;2023-02-20T06:24:49;8.60;53.20
10300;DHT22;5195;48.562;9.192;2023-02-20T06:27:16;8.90;53.10
10300;DHT22;5195;48.562;9.192;2023-02-20T06:29:41;8.90;53.10
10300;DHT22;5195;48.562;9.192;2023-02-20T06:32:07;9.10;52.60
10300;DHT22;5195;48.562;9.192;2023-02-20T06:34:32;9.30;52.20
10300;DHT22;5195;48.562;9.192;2023-02-20T06:37:01;9.40;51.80
10300;DHT22;5195;48.562;9.192;2023-02-20T06:39:27;9.50;51.50
10300;DHT22;5195;48.562;9.192;2023-02-20T06:41:52;9.20;51.70
10300;DHT22;5195;48.562;9.192;2023-02-20T06:44:18;9.10;52.00
10300;DHT22;5195;48.562;9.192;2023-02-20T06:46:43;9.30;51.80
10300;DHT22;5195;48.562;9.192;2023-02-20T06:49:09;9.20;52.00
10300;DHT22;5195;48.562;9.192;2023-02-20T06:51:35;8.90;52.60
10300;DHT22;5195;48.562;9.192;2023-02-20T06:54:00;8.90;52.60
10300;DHT22;5195;48.562;9.192;2023-02-20T06:56:27;9.20;52.20
10300;DHT22;5195;48.562;9.192;2023-02-20T06:58:52;9.20;52.30
10300;DHT22;5195;48.562;9.192;2023-02-20T07:01:18;9.30;52.00
10300;DHT22;5195;48.562;9.192;2023-02-20T07:03:44;9.10;52.60
10300;DHT22;5195;48.562;9.192;2023-02-20T07:06:09;9.10;52.50
10300;DHT22;5195;48.562;9.192;2023-02-20T07:08:35;9.30;52.20
10300;DHT22;5195;48.562;9.192;2023-02-20T07:11:00;9.60;51.40
10300;DHT22;5195;48.562;9.192;2023-02-20T07:13:26;10.00;49.70
10300;DHT22;5195;48.562;9.192;2023-02-20T07:15:52;10.30;49.50
10300;DHT22;5195;48.562;9.192;2023-02-20T07:18:17;10.20;49.60
10300;DHT22;5195;48.562;9.192;2023-02-20T07:20:43;10.40;50.10
10300;DHT22;5195;48.562;9.192;2023-02-20T07:23:09;10.70;49.20
10300;DHT22;5195;48.562;9.192;2023-02-20T07:25:34;10.60;49.20
10300;DHT22;5195;48.562;9.192;2023-02-20T07:28:00;10.70;48.90
10300;DHT22;5195;48.562;9.192;2023-02-20T07:30:26;10.60;49.10
10300;DHT22;5195;48.562;9.192;2023-02-20T07:32:51;10.40;49.40
10300;DHT22;5195;48.562;9.192;2023-02-20T07:35:18;10.80;48.90
10300;DHT22;5195;48.562;9.192;2023-02-20T07:37:43;10.80;48.20
10300;DHT22;5195;48.562;9.192;2023-02-20T07:40:10;11.40;47.10
10300;DHT22;5195;48.562;9.192;2023-02-20T07:42:35;11.40;47.10
10300;DHT22;5195;48.562;9.192;2023-02-20T07:45:01;11.60;46.40
10300;DHT22;5195;48.562;9.192;2023-02-20T07:47:26;11.80;46.10
10300;DHT22;5195;48.562;9.192;2023-02-20T07:49:52;11.60;46.50
10300;DHT22;5195;48.562;9.192;2023-02-20T07:52:17;11.40;47.20
10300;DHT22;5195;48.562;9.192;2023-02-20T07:54:44;11.50;46.70
10300;DHT22;5195;48.562;9.192;2023-02-20T07:57:09;11.50;47.10
10300;DHT22;5195;48.562;9.192;2023-02-20T07:59:35;11.60;46.40
10300;DHT22;5195;48.562;9.192;2023-02-20T08:02:01;11.90;46.10
10300;DHT22;5195;48.562;9.192;2023-02-20T08:04:26;11.90;46.50
10300;DHT22;5195;48.562;9.192;2023-02-20T08:06:52;11.80;47.00
10300;DHT22;5195;48.562;9.192;2023-02-20T08:09:17;11.60;47.40
10300;DHT22;5195;48.562;9.192;2023-02-20T08:11:43;11.80;46.50
10300;DHT22;5195;48.562;9.192;2023-02-20T08:14:08;12.20;46.10
10300;DHT22;5195;48.562;9.192;2023-02-20T08:16:34;12.50;45.70
10300;DHT22;5195;48.562;9.192;2023-02-20T08:19:00;12.70;45.30
10300;DHT22;5195;48.562;9.192;2023-02-20T08:21:26;12.70;45.30
10300;DHT22;5195;48.562;9.192;2023-02-20T08:23:51;12.50;45.90
10300;DHT22;5195;48.562;9.192;2023-02-20T08:26:17;12.40;46.30
10300;DHT22;5195;48.562;9.192;2023-02-20T08:28:43;12.50;45.60
10300;DHT22;5195;48.562;9.192;2023-02-20T08:31:08;12.80;45.30
10300;DHT22;5195;48.562;9.192;2023-02-20T08:33:34;12.90;45.60
10300;DHT22;5195;48.562;9.192;2023-02-20T08:35:59;12.70;45.80
10300;DHT22;5195;48.562;9.192;2023-02-20T08:38:35;12.60;46.30
10300;DHT22;5195;48.562;9.192;2023-02-20T08:40:57;12.70;44.90
10300;DHT22;5195;48.562;9.192;2023-02-20T08:43:23;13.10;44.50
10300;DHT22;5195;48.562;9.192;2023-02-20T08:45:48;13.20;44.80
10300;DHT22;5195;48.562;9.192;2023-02-20T08:48:13;13.30;43.30
10300;DHT22;5195;48.562;9.192;2023-02-20T08:50:40;13.90;42.90
10300;DHT22;5195;48.562;9.192;2023-02-20T08:53:05;13.90;42.90
10300;DHT22;5195;48.562;9.192;2023-02-20T08:55:32;14.10;43.60
10300;DHT22;5195;48.562;9.192;2023-02-20T08:57:57;14.10;43.10
10300;DHT22;5195;48.562;9.192;2023-02-20T09:00:23;14.10;42.70
10300;DHT22;5195;48.562;9.192;2023-02-20T09:02:50;14.30;42.00
10300;DHT22;5195;48.562;9.192;2023-02-20T09:05:16;14.10;43.30
10300;DHT22;5195;48.562;9.192;2023-02-20T09:07:42;14.20;43.40
10300;DHT22;5195;48.562;9.192;2023-02-20T09:10:09;14.00;43.80
10300;DHT22;5195;48.562;9.192;2023-02-20T09:12:34;13.90;44.10
10300;DHT22;5195;48.562;9.192;2023-02-20T09:15:00;14.10;42.70
10300;DHT22;5195;48.562;9.192;2023-02-20T09:17:28;14.10;42.80
10300;DHT22;5195;48.562;9.192;2023-02-20T09:19:51;14.10;43.50
10300;DHT22;5195;48.562;9.192;2023-02-20T09:22:20;14.30;41.70
10300;DHT22;5195;48.562;9.192;2023-02-20T09:24:42;14.60;40.10
10300;DHT22;5195;48.562;9.192;2023-02-20T09:27:08;14.60;40.80
10300;DHT22;5195;48.562;9.192;2023-02-20T09:29:33;14.50;41.30
10300;DHT22;5195;48.562;9.192;2023-02-20T09:31:59;14.60;41.00
10300;DHT22;5195;48.562;9.192;2023-02-20T09:34:25;14.90;40.10
10300;DHT22;5195;48.562;9.192;2023-02-20T09:36:50;15.30;39.40
10300;DHT22;5195;48.562;9.192;2023-02-20T09:39:16;15.30;39.90
10300;DHT22;5195;48.562;9.192;2023-02-20T09:41:50;15.40;39.20
10300;DHT22;5195;48.562;9.192;2023-02-20T09:46:36;15.30;40.20
10300;DHT22;5195;48.562;9.192;2023-02-20T09:49:10;15.40;38.90
10300;DHT22;5195;48.562;9.192;2023-02-20T09:51:37;15.50;39.50
10300;DHT22;5195;48.562;9.192;2023-02-20T09:57:02;16.10;38.60
10300;DHT22;5195;48.562;9.192;2023-02-20T09:59:37;16.20;39.20
10300;DHT22;5195;48.562;9.192;2023-02-20T10:02:29;16.30;38.10
10300;DHT22;5195;48.562;9.192;2023-02-20T10:04:55;16.60;37.90
10300;DHT22;5195;48.562;9.192;2023-02-20T10:07:27;16.60;38.30
10300;DHT22;5195;48.562;9.192;2023-02-20T10:09:53;16.50;38.30
10300;DHT22;5195;48.562;9.192;2023-02-20T10:12:34;16.50;37.80
10300;DHT22;5195;48.562;9.192;2023-02-20T10:17:55;16.90;37.80
10300;DHT22;5195;48.562;9.192;2023-02-20T10:20:45;17.00;37.10
10300;DHT22;5195;48.562;9.192;2023-02-20T10:23:10;17.30;36.80
10300;DHT22;5195;48.562;9.192;2023-02-20T10:25:40;17.50;35.70
10300;DHT22;5195;48.562;9.192;2023-02-20T10:28:16;17.30;36.10
10300;DHT22;5195;48.562;9.192;2023-02-20T10:33:35;17.10;35.50
10300;DHT22;5195;48.562;9.192;2023-02-20T10:36:03;16.80;36.40
10300;DHT22;5195;48.562;9.192;2023-02-20T10:38:28;16.60;36.00
10300;DHT22;5195;48.562;9.192;2023-02-20T10:41:07;16.70;36.30
10300;DHT22;5195;48.562;9.192;2023-02-20T10:43:36;16.90;36.20
10300;DHT22;5195;48.562;9.192;2023-02-20T10:46:15;17.00;35.70
10300;DHT22;5195;48.562;9.192;2023-02-20T10:48:38;16.90;36.40
10300;DHT22;5195;48.562;9.192;2023-02-20T10:51:13;16.90;35.80
10300;DHT22;5195;48.562;9.192;2023-02-20T10:59:22;17.00;36.00
10300;DHT22;5195;48.562;9.192;2023-02-20T11:01:47;16.90;36.40
10300;DHT22;5195;48.562;9.192;2023-02-20T11:04:15;17.00;36.20
10300;DHT22;5195;48.562;9.192;2023-02-20T11:06:55;17.00;36.80
10300;DHT22;5195;48.562;9.192;2023-02-20T11:09:09;17.00;36.00
10300;DHT22;5195;48.562;9.192;2023-02-20T11:11:41;17.30;36.50
10300;DHT22;5195;48.562;9.192;2023-02-20T11:14:14;17.50;36.30
10300;DHT22;5195;48.562;9.192;2023-02-20T11:16:36;17.50;36.00
10300;DHT22;5195;48.562;9.192;2023-02-20T11:19:11;17.50;35.40
10300;DHT22;5195;48.562;9.192;2023-02-20T11:21:38;17.40;35.60
10300;DHT22;5195;48.562;9.192;2023-02-20T11:24:03;17.50;35.90
10300;DHT22;5195;48.562;9.192;2023-02-20T11:26:26;17.70;35.20
10300;DHT22;5195;48.562;9.192;2023-02-20T11:31:35;17.70;35.40
10300;DHT22;5195;48.562;9.192;2023-02-20T11:34:01;17.60;35.80
10300;DHT22;5195;48.562;9.192;2023-02-20T11:36:27;17.70;34.70
10300;DHT22;5195;48.562;9.192;2023-02-20T11:38:58;17.60;35.30
10300;DHT22;5195;48.562;9.192;2023-02-20T11:41:22;17.60;35.30
10300;DHT22;5195;48.562;9.192;2023-02-20T11:43:46;17.80;34.40
10300;DHT22;5195;48.562;9.192;2023-02-20T11:46:20;18.20;34.10
10300;DHT22;5195;48.562;9.192;2023-02-20T11:48:59;18.20;34.10
10300;DHT22;5195;48.562;9.192;2023-02-20T11:54:16;17.80;34.70
10300;DHT22;5195;48.562;9.192;2023-02-20T11:59:46;18.20;34.00
10300;DHT22;5195;48.562;9.192;2023-02-20T12:04:39;18.10;34.60
10300;DHT22;5195;48.562;9.192;2023-02-20T12:09:49;17.90;34.90
10300;DHT22;5195;48.562;9.192;2023-02-20T12:12:13;17.70;35.20
10300;DHT22;5195;48.562;9.192;2023-02-20T12:14:39;17.60;35.30
10300;DHT22;5195;48.562;9.192;2023-02-20T12:17:07;17.70;34.10
10300;DHT22;5195;48.562;9.192;2023-02-20T12:20:01;18.20;33.80
10300;DHT22;5195;48.562;9.192;2023-02-20T12:22:34;18.10;34.60
10300;DHT22;5195;48.562;9.192;2023-02-20T12:25:22;18.20;33.10
10300;DHT22;5195;48.562;9.192;2023-02-20T12:30:34;18.10;33.80
10300;DHT22;5195;48.562;9.192;2023-02-20T12:33:06;17.90;34.40
10300;DHT22;5195;48.562;9.192;2023-02-20T12:35:30;18.00;33.90
10300;DHT22;5195;48.562;9.192;2023-02-20T12:40:29;17.90;33.70
10300;DHT22;5195;48.562;9.192;2023-02-20T12:45:47;17.70;34.40
10300;DHT22;5195;48.562;9.192;2023-02-20T12:56:28;18.00;33.30
10300;DHT22;5195;48.562;9.192;2023-02-20T12:59:12;17.90;34.40
10300;DHT22;5195;48.562;9.192;2023-02-20T13:01:33;18.00;33.40
10300;DHT22;5195;48.562;9.192;2023-02-20T13:04:02;18.30;33.30
10300;DHT22;5195;48.562;9.192;2023-02-20T13:06:46;18.20;33.20
10300;DHT22;5195;48.562;9.192;2023-02-20T13:09:18;18.10;33.50
10300;DHT22;5195;48.562;9.192;2023-02-20T13:11:44;17.80;33.90
10300;DHT22;5195;48.562;9.192;2023-02-20T13:22:02;17.80;33.10
10300;DHT22;5195;48.562;9.192;2023-02-20T13:24:30;18.10;33.00
10300;DHT22;5195;48.562;9.192;2023-02-20T13:26:58;18.30;32.60
10300;DHT22;5195;48.562;9.192;2023-02-20T13:29:24;18.50;32.20
10300;DHT22;5195;48.562;9.192;2023-02-20T13:31:48;18.50;32.20
10300;DHT22;5195;48.562;9.192;2023-02-20T13:36:37;18.00;33.00
10300;DHT22;5195;48.562;9.192;2023-02-20T13:46:58;17.70;34.30
10300;DHT22;5195;48.562;9.192;2023-02-20T13:52:43;17.80;33.30
10300;DHT22;5195;48.562;9.192;2023-02-20T13:57:45;17.60;33.50
10300;DHT22;5195;48.562;9.192;2023-02-20T14:00:28;17.40;33.90
10300;DHT22;5195;48.562;9.192;2023-02-20T14:02:53;17.40;33.90
10300;DHT22;5195;48.562;9.192;2023-02-20T14:05:20;17.50;33.60
10300;DHT22;5195;48.562;9.192;2023-02-20T14:07:44;17.80;33.00
10300;DHT22;5195;48.562;9.192;2023-02-20T14:10:18;17.70;33.70
10300;DHT22;5195;48.562;9.192;2023-02-20T14:12:44;17.50;33.90
10300;DHT22;5195;48.562;9.192;2023-02-20T14:15:10;17.40;33.80
10300;DHT22;5195;48.562;9.192;2023-02-20T14:17:35;17.30;34.10
10300;DHT22;5195;48.562;9.192;2023-02-20T14:20:01;17.20;34.20
10300;DHT22;5195;48.562;9.192;2023-02-20T14:22:29;17.30;33.40
10300;DHT22;5195;48.562;9.192;2023-02-20T14:27:41;18.00;32.40
10300;DHT22;5195;48.562;9.192;2023-02-20T14:30:10;17.90;32.60
10300;DHT22;5195;48.562;9.192;2023-02-20T14:32:35;17.60;33.00
10300;DHT22;5195;48.562;9.192;2023-02-20T14:40:18;17.10;33.90
10300;DHT22;5195;48.562;9.192;2023-02-20T14:42:43;17.30;33.20
10300;DHT22;5195;48.562;9.192;2023-02-20T14:45:12;17.60;32.80
10300;DHT22;5195;48.562;9.192;2023-02-20T14:47:35;17.80;32.40
10300;DHT22;5195;48.562;9.192;2023-02-20T14:50:12;17.70;32.30
10300;DHT22;5195;48.562;9.192;2023-02-20T14:52:32;18.00;32.10
10300;DHT22;5195;48.562;9.192;2023-02-20T14:55:00;17.90;32.20
10300;DHT22;5195;48.562;9.192;2023-02-20T14:57:24;17.90;32.20
10300;DHT22;5195;48.562;9.192;2023-02-20T15:00:20;17.80;32.50
10300;DHT22;5195;48.562;9.192;2023-02-20T15:02:36;17.70;32.50
10300;DHT22;5195;48.562;9.192;2023-02-20T15:05:05;17.70;32.50
10300;DHT22;5195;48.562;9.192;2023-02-20T15:07:30;17.80;32.00
10300;DHT22;5195;48.562;9.192;2023-02-20T15:09:56;17.70;32.30
10300;DHT22;5195;48.562;9.192;2023-02-20T15:14:52;17.20;33.20
10300;DHT22;5195;48.562;9.192;2023-02-20T15:19:40;17.20;32.70
10300;DHT22;5195;48.562;9.192;2023-02-20T15:22:19;17.20;32.70
10300;DHT22;5195;48.562;9.192;2023-02-20T15:24:36;17.80;31.40
10300;DHT22;5195;48.562;9.192;2023-02-20T15:27:14;17.80;31.40
10300;DHT22;5195;48.562;9.192;2023-02-20T15:29:39;17.70;31.70
10300;DHT22;5195;48.562;9.192;2023-02-20T15:32:13;17.20;32.80
10300;DHT22;5195;48.562;9.192;2023-02-20T15:34:36;17.20;32.40
10300;DHT22;5195;48.562;9.192;2023-02-20T15:37:04;17.30;30.60
10300;DHT22;5195;48.562;9.192;2023-02-20T15:39:26;17.30;30.80
10300;DHT22;5195;48.562;9.192;2023-02-20T15:41:52;17.40;28.40
10300;DHT22;5195;48.562;9.192;2023-02-20T15:44:17;17.60;27.50
10300;DHT22;5195;48.562;9.192;2023-02-20T15:46:43;17.50;28.20
10300;DHT22;5195;48.562;9.192;2023-02-20T15:49:08;17.60;27.30
10300;DHT22;5195;48.562;9.192;2023-02-20T15:51:38;17.50;27.90
10300;DHT22;5195;48.562;9.192;2023-02-20T15:54:01;17.20;28.60
10300;DHT22;5195;48.562;9.192;2023-02-20T15:56:28;16.90;28.80
10300;DHT22;5195;48.562;9.192;2023-02-20T15:58:52;17.00;27.60
10300;DHT22;5195;48.562;9.192;2023-02-20T16:01:17;17.00;28.20
10300;DHT22;5195;48.562;9.192;2023-02-20T16:03:43;17.10;27.80
10300;DHT22;5195;48.562;9.192;2023-02-20T16:06:09;17.00;28.40
10300;DHT22;5195;48.562;9.192;2023-02-20T16:08:34;16.70;28.80
10300;DHT22;5195;48.562;9.192;2023-02-20T16:11:00;16.80;27.70
10300;DHT22;5195;48.562;9.192;2023-02-20T16:13:39;16.50;28.70
10300;DHT22;5195;48.562;9.192;2023-02-20T16:16:07;16.50;28.70
10300;DHT22;5195;48.562;9.192;2023-02-20T16:18:30;16.30;29.10
10300;DHT22;5195;48.562;9.192;2023-02-20T16:20:56;16.10;29.30
10300;DHT22;5195;48.562;9.192;2023-02-20T16:23:22;15.90;29.60
10300;DHT22;5195;48.562;9.192;2023-02-20T16:25:48;16.10;28.20
10300;DHT22;5195;48.562;9.192;2023-02-20T16:28:13;16.10;28.70
10300;DHT22;5195;48.562;9.192;2023-02-20T16:30:39;16.30;27.80
10300;DHT22;5195;48.562;9.192;2023-02-20T16:33:17;16.20;28.70
10300;DHT22;5195;48.562;9.192;2023-02-20T16:35:42;16.30;27.40
10300;DHT22;5195;48.562;9.192;2023-02-20T16:38:08;15.90;29.00
10300;DHT22;5195;48.562;9.192;2023-02-20T16:40:35;15.90;27.20
10300;DHT22;5195;48.562;9.192;2023-02-20T16:43:00;15.90;27.20
10300;DHT22;5195;48.562;9.192;2023-02-20T16:45:27;15.60;28.50
10300;DHT22;5195;48.562;9.192;2023-02-20T16:47:53;15.60;28.50
10300;DHT22;5195;48.562;9.192;2023-02-20T16:50:19;15.40;28.80
10300;DHT22;5195;48.562;9.192;2023-02-20T16:52:43;15.20;29.10
10300;DHT22;5195;48.562;9.192;2023-02-20T16:57:52;15.60;27.20
10300;DHT22;5195;48.562;9.192;2023-02-20T17:00:19;15.50;27.60
10300;DHT22;5195;48.562;9.192;2023-02-20T17:02:43;15.60;27.30
10300;DHT22;5195;48.562;9.192;2023-02-20T17:05:09;15.70;27.00
10300;DHT22;5195;48.562;9.192;2023-02-20T17:07:34;15.90;26.90
10300;DHT22;5195;48.562;9.192;2023-02-20T17:10:01;16.10;26.70
10300;DHT22;5195;48.562;9.192;2023-02-20T17:12:26;16.10;26.70
10300;DHT22;5195;48.562;9.192;2023-02-20T17:14:52;15.80;27.40
10300;DHT22;5195;48.562;9.192;2023-02-20T17:17:18;15.70;27.10
10300;DHT22;5195;48.562;9.192;2023-02-20T17:19:43;15.70;27.30
10300;DHT22;5195;48.562;9.192;2023-02-20T17:22:09;15.50;27.90
10300;DHT22;5195;48.562;9.192;2023-02-20T17:24:34;15.50;27.80
10300;DHT22;5195;48.562;9.192;2023-02-20T17:27:00;15.30;28.50
10300;DHT22;5195;48.562;9.192;2023-02-20T17:29:26;14.90;29.00
10300;DHT22;5195;48.562;9.192;2023-02-20T17:31:51;14.90;28.80
10300;DHT22;5195;48.562;9.192;2023-02-20T17:34:16;15.10;29.00
10300;DHT22;5195;48.562;9.192;2023-02-20T17:36:42;15.00;29.30
10300;DHT22;5195;48.562;9.192;2023-02-20T17:39:08;14.70;29.90
10300;DHT22;5195;48.562;9.192;2023-02-20T17:41:33;14.70;29.60